sensor_id;sensor_type;location;lat;lon;timestamp;P1;durP1;ratioP1;P2;durP2;ratioP2
32130;SDS011;18639;50.716;7.086;2023-09-12T00:01:19;10.20;;;4.20;;
32130;SDS011;18639;50.716;7.086;2023-09-12T00:03:44;7.63;;;4.15;;
32130;SDS011;18639;50.716;7.086;2023-09-12T00:06:09;7.75;;;4.20;;
32130;SDS011;18639;50.716;7.086;2023-09-12T00:08:34;8.43;;;4.20;;
32130;SDS011;18639;50.716;7.086;2023-09-12T00:11:04;7.53;;;3.75;;
32130;SDS011;18639;50.716;7.086;2023-09-12T00:13:31;10.32;;;3.78;;
32130;SDS011;18639;50.716;7.086;2023-09-12T00:15:57;9.63;;;3.78;;
32130;SDS011;18639;50.716;7.086;2023-09-12T00:18:22;9.73;;;4.05;;
32130;SDS011;18639;50.716;7.086;2023-09-12T00:20:49;6.75;;;3.72;;
32130;SDS011;18639;50.716;7.086;2023-09-12T00:23:15;7.00;;;3.88;;
32130;SDS011;18639;50.716;7.086;2023-09-12T00:25:40;7.40;;;3.58;;
32130;SDS011;18639;50.716;7.086;2023-09-12T00:28:05;8.50;;;3.92;;
32130;SDS011;18639;50.716;7.086;2023-09-12T00:30:31;9.18;;;3.58;;
32130;SDS011;18639;50.716;7.086;2023-09-12T00:32:56;7.95;;;3.13;;
32130;SDS011;18639;50.716;7.086;2023-09-12T00:35:21;7.03;;;3.30;;
32130;SDS011;18639;50.716;7.086;2023-09-12T00:37:46;7.40;;;3.55;;
32130;SDS011;18639;50.716;7.086;2023-09-12T00:40:12;8.10;;;3.55;;
32130;SDS011;18639;50.716;7.086;2023-09-12T00:42:37;7.53;;;3.28;;
32130;SDS011;18639;50.716;7.086;2023-09-12T00:45:02;5.28;;;3.10;;
32130;SDS011;18639;50.716;7.086;2023-09-12T00:47:28;6.68;;;3.28;;
32130;SDS011;18639;50.716;7.086;2023-09-12T00:49:55;7.40;;;3.42;;
32130;SDS011;18639;50.716;7.086;2023-09-12T00:52:21;9.05;;;2.65;;
32130;SDS011;18639;50.716;7.086;2023-09-12T00:54:49;5.75;;;2.67;;
32130;SDS011;18639;50.716;7.086;2023-09-12T00:57:15;5.15;;;2.92;;
32130;SDS011;18639;50.716;7.086;2023-09-12T00:59:40;6.25;;;2.83;;
32130;SDS011;18639;50.716;7.086;2023-09-12T01:02:06;6.40;;;2.92;;
32130;SDS011;18639;50.716;7.086;2023-09-12T01:04:31;4.20;;;2.65;;
32130;SDS011;18639;50.716;7.086;2023-09-12T01:06:57;6.30;;;3.08;;
32130;SDS011;18639;50.716;7.086;2023-09-12T01:09:23;6.57;;;2.90;;
32130;SDS011;18639;50.716;7.086;2023-09-12T01:11:49;5.80;;;3.03;;
32130;SDS011;18639;50.716;7.086;2023-09-12T01:14:14;6.93;;;2.63;;
32130;SDS011;18639;50.716;7.086;2023-09-12T01:16:39;4.57;;;2.70;;
32130;SDS011;18639;50.716;7.086;2023-09-12T01:19:06;6.13;;;3.13;;
32130;SDS011;18639;50.716;7.086;2023-09-12T01:29:58;4.65;;;2.40;;
32130;SDS011;18639;50.716;7.086;2023-09-12T01:32:26;4.55;;;2.40;;
32130;SDS011;18639;50.716;7.086;2023-09-12T01:34:54;5.38;;;2.50;;
32130;SDS011;18639;50.716;7.086;2023-09-12T01:37:19;3.97;;;2.63;;
32130;SDS011;18639;50.716;7.086;2023-09-12T01:39:44;4.95;;;2.08;;
32130;SDS011;18639;50.716;7.086;2023-09-12T01:42:11;6.65;;;2.67;;
32130;SDS011;18639;50.716;7.086;2023-09-12T01:44:41;6.03;;;3.08;;
32130;SDS011;18639;50.716;7.086;2023-09-12T01:47:08;5.10;;;2.33;;
32130;SDS011;18639;50.716;7.086;2023-09-12T01:49:36;5.90;;;2.40;;
32130;SDS011;18639;50.716;7.086;2023-09-12T01:52:04;5.97;;;2.47;;
32130;SDS011;18639;50.716;7.086;2023-09-12T01:54:30;4.13;;;2.17;;
32130;SDS011;18639;50.716;7.086;2023-09-12T01:56:57;4.50;;;2.42;;
32130;SDS011;18639;50.716;7.086;2023-09-12T01:59:24;5.78;;;2.90;;
32130;SDS011;18639;50.716;7.086;2023-09-12T02:01:50;5.78;;;2.70;;
32130;SDS011;18639;50.716;7.086;2023-09-12T02:04:15;4.32;;;2.40;;
32130;SDS011;18639;50.716;7.086;2023-09-12T02:06:41;8.23;;;3.08;;
32130;SDS011;18639;50.716;7.086;2023-09-12T02:09:06;5.72;;;2.53;;
32130;SDS011;18639;50.716;7.086;2023-09-12T02:11:31;6.18;;;2.38;;
32130;SDS011;18639;50.716;7.086;2023-09-12T02:13:56;6.50;;;2.58;;
32130;SDS011;18639;50.716;7.086;2023-09-12T02:16:22;6.72;;;2.88;;
32130;SDS011;18639;50.716;7.086;2023-09-12T02:18:47;4.35;;;2.40;;
32130;SDS011;18639;50.716;7.086;2023-09-12T02:21:13;5.20;;;2.40;;
32130;SDS011;18639;50.716;7.086;2023-09-12T02:23:38;3.92;;;2.08;;
32130;SDS011;18639;50.716;7.086;2023-09-12T02:26:03;5.70;;;2.80;;
32130;SDS011;18639;50.716;7.086;2023-09-12T02:28:29;5.43;;;2.40;;
32130;SDS011;18639;50.716;7.086;2023-09-12T02:30:54;5.72;;;2.70;;
32130;SDS011;18639;50.716;7.086;2023-09-12T02:33:19;3.75;;;2.22;;
32130;SDS011;18639;50.716;7.086;2023-09-12T02:35:45;6.82;;;2.42;;
32130;SDS011;18639;50.716;7.086;2023-09-12T02:38:10;4.88;;;2.80;;
32130;SDS011;18639;50.716;7.086;2023-09-12T02:40:35;5.28;;;2.53;;
32130;SDS011;18639;50.716;7.086;2023-09-12T02:43:00;6.00;;;2.83;;
32130;SDS011;18639;50.716;7.086;2023-09-12T02:45:26;5.75;;;3.10;;
32130;SDS011;18639;50.716;7.086;2023-09-12T02:47:51;6.47;;;2.90;;
32130;SDS011;18639;50.716;7.086;2023-09-12T02:50:16;5.40;;;2.70;;
32130;SDS011;18639;50.716;7.086;2023-09-12T02:52:41;9.38;;;2.55;;
32130;SDS011;18639;50.716;7.086;2023-09-12T02:55:07;7.30;;;2.53;;
32130;SDS011;18639;50.716;7.086;2023-09-12T02:57:32;5.35;;;2.63;;
32130;SDS011;18639;50.716;7.086;2023-09-12T02:59:57;7.00;;;3.00;;
32130;SDS011;18639;50.716;7.086;2023-09-12T03:02:23;5.18;;;2.80;;
32130;SDS011;18639;50.716;7.086;2023-09-12T03:04:48;6.57;;;2.80;;
32130;SDS011;18639;50.716;7.086;2023-09-12T03:07:14;6.78;;;2.95;;
32130;SDS011;18639;50.716;7.086;2023-09-12T03:09:39;8.13;;;2.47;;
32130;SDS011;18639;50.716;7.086;2023-09-12T03:12:04;7.35;;;3.28;;
32130;SDS011;18639;50.716;7.086;2023-09-12T03:14:30;8.52;;;2.95;;
32130;SDS011;18639;50.716;7.086;2023-09-12T03:16:55;8.98;;;3.47;;
32130;SDS011;18639;50.716;7.086;2023-09-12T03:19:21;6.25;;;2.75;;
32130;SDS011;18639;50.716;7.086;2023-09-12T03:21:46;6.20;;;3.08;;
32130;SDS011;18639;50.716;7.086;2023-09-12T03:24:11;6.65;;;3.25;;
32130;SDS011;18639;50.716;7.086;2023-09-12T03:26:37;6.47;;;3.05;;
32130;SDS011;18639;50.716;7.086;2023-09-12T03:29:03;6.63;;;3.45;;
32130;SDS011;18639;50.716;7.086;2023-09-12T03:31:29;6.63;;;3.22;;
32130;SDS011;18639;50.716;7.086;2023-09-12T03:33:54;6.28;;;2.90;;
32130;SDS011;18639;50.716;7.086;2023-09-12T03:36:20;8.05;;;3.47;;
32130;SDS011;18639;50.716;7.086;2023-09-12T03:38:45;8.90;;;3.63;;
32130;SDS011;18639;50.716;7.086;2023-09-12T03:41:10;6.82;;;3.05;;
32130;SDS011;18639;50.716;7.086;2023-09-12T03:43:36;6.65;;;3.28;;
32130;SDS011;18639;50.716;7.086;2023-09-12T03:46:02;7.07;;;3.50;;
32130;SDS011;18639;50.716;7.086;2023-09-12T03:48:28;7.40;;;3.60;;
32130;SDS011;18639;50.716;7.086;2023-09-12T03:50:55;6.65;;;3.35;;
32130;SDS011;18639;50.716;7.086;2023-09-12T03:53:21;8.75;;;3.85;;
32130;SDS011;18639;50.716;7.086;2023-09-12T03:55:46;9.13;;;3.67;;
32130;SDS011;18639;50.716;7.086;2023-09-12T03:58:11;7.43;;;3.47;;
32130;SDS011;18639;50.716;7.086;2023-09-12T04:00:37;7.00;;;3.10;;
32130;SDS011;18639;50.716;7.086;2023-09-12T04:03:02;6.13;;;3.10;;
32130;SDS011;18639;50.716;7.086;2023-09-12T04:05:28;9.18;;;3.88;;
32130;SDS011;18639;50.716;7.086;2023-09-12T04:07:53;5.63;;;2.95;;
32130;SDS011;18639;50.716;7.086;2023-09-12T04:10:19;6.78;;;3.25;;
32130;SDS011;18639;50.716;7.086;2023-09-12T04:12:45;7.13;;;2.90;;
32130;SDS011;18639;50.716;7.086;2023-09-12T04:15:10;5.63;;;2.95;;
32130;SDS011;18639;50.716;7.086;2023-09-12T04:17:36;7.57;;;3.28;;
32130;SDS011;18639;50.716;7.086;2023-09-12T04:20:01;8.70;;;3.40;;
32130;SDS011;18639;50.716;7.086;2023-09-12T04:22:26;10.30;;;3.25;;
32130;SDS011;18639;50.716;7.086;2023-09-12T04:24:53;7.13;;;2.85;;
32130;SDS011;18639;50.716;7.086;2023-09-12T04:27:18;8.13;;;3.28;;
32130;SDS011;18639;50.716;7.086;2023-09-12T04:29:44;6.50;;;2.58;;
32130;SDS011;18639;50.716;7.086;2023-09-12T04:32:09;6.20;;;3.20;;
32130;SDS011;18639;50.716;7.086;2023-09-12T04:34:34;6.82;;;3.30;;
32130;SDS011;18639;50.716;7.086;2023-09-12T04:37:00;8.02;;;3.15;;
32130;SDS011;18639;50.716;7.086;2023-09-12T04:39:27;5.50;;;2.70;;
32130;SDS011;18639;50.716;7.086;2023-09-12T04:41:53;6.88;;;2.75;;
32130;SDS011;18639;50.716;7.086;2023-09-12T04:44:18;5.68;;;2.75;;
32130;SDS011;18639;50.716;7.086;2023-09-12T04:46:43;7.72;;;3.40;;
32130;SDS011;18639;50.716;7.086;2023-09-12T04:49:09;5.88;;;2.92;;
32130;SDS011;18639;50.716;7.086;2023-09-12T04:51:35;7.38;;;3.08;;
32130;SDS011;18639;50.716;7.086;2023-09-12T04:54:00;6.07;;;3.05;;
32130;SDS011;18639;50.716;7.086;2023-09-12T04:56:25;7.40;;;2.72;;
32130;SDS011;18639;50.716;7.086;2023-09-12T04:58:51;6.75;;;3.13;;
32130;SDS011;18639;50.716;7.086;2023-09-12T05:01:16;5.07;;;2.63;;
32130;SDS011;18639;50.716;7.086;2023-09-12T05:03:42;7.05;;;3.10;;
32130;SDS011;18639;50.716;7.086;2023-09-12T05:06:07;9.95;;;3.22;;
32130;SDS011;18639;50.716;7.086;2023-09-12T05:08:32;5.97;;;3.30;;
32130;SDS011;18639;50.716;7.086;2023-09-12T05:10:58;6.60;;;3.05;;
32130;SDS011;18639;50.716;7.086;2023-09-12T05:13:23;6.47;;;2.85;;
32130;SDS011;18639;50.716;7.086;2023-09-12T05:15:48;8.52;;;3.50;;
32130;SDS011;18639;50.716;7.086;2023-09-12T05:18:13;8.50;;;3.35;;
32130;SDS011;18639;50.716;7.086;2023-09-12T05:20:39;9.15;;;3.80;;
32130;SDS011;18639;50.716;7.086;2023-09-12T05:23:04;9.63;;;2.85;;
32130;SDS011;18639;50.716;7.086;2023-09-12T05:25:29;7.43;;;3.28;;
32130;SDS011;18639;50.716;7.086;2023-09-12T05:27:55;8.15;;;3.45;;
32130;SDS011;18639;50.716;7.086;2023-09-12T05:30:21;8.57;;;3.58;;
32130;SDS011;18639;50.716;7.086;2023-09-12T05:32:46;8.00;;;3.63;;
32130;SDS011;18639;50.716;7.086;2023-09-12T05:35:12;9.25;;;4.43;;
32130;SDS011;18639;50.716;7.086;2023-09-12T05:37:37;9.85;;;4.10;;
32130;SDS011;18639;50.716;7.086;2023-09-12T05:40:02;7.32;;;3.78;;
32130;SDS011;18639;50.716;7.086;2023-09-12T05:42:28;7.57;;;4.07;;
32130;SDS011;18639;50.716;7.086;2023-09-12T05:44:54;11.80;;;4.35;;
32130;SDS011;18639;50.716;7.086;2023-09-12T05:47:20;14.50;;;4.20;;
32130;SDS011;18639;50.716;7.086;2023-09-12T05:49:46;13.88;;;4.70;;
32130;SDS011;18639;50.716;7.086;2023-09-12T05:52:11;9.68;;;4.20;;
32130;SDS011;18639;50.716;7.086;2023-09-12T05:54:37;8.50;;;3.75;;
32130;SDS011;18639;50.716;7.086;2023-09-12T05:57:03;8.65;;;4.05;;
32130;SDS011;18639;50.716;7.086;2023-09-12T05:59:28;7.63;;;3.47;;
32130;SDS011;18639;50.716;7.086;2023-09-12T06:01:54;11.02;;;4.38;;
32130;SDS011;18639;50.716;7.086;2023-09-12T06:04:20;10.02;;;4.30;;
32130;SDS011;18639;50.716;7.086;2023-09-12T06:06:46;9.50;;;4.03;;
32130;SDS011;18639;50.716;7.086;2023-09-12T06:09:11;10.80;;;4.28;;
32130;SDS011;18639;50.716;7.086;2023-09-12T06:11:36;8.68;;;3.92;;
32130;SDS011;18639;50.716;7.086;2023-09-12T06:14:02;9.95;;;3.63;;
32130;SDS011;18639;50.716;7.086;2023-09-12T06:16:27;10.82;;;3.90;;
32130;SDS011;18639;50.716;7.086;2023-09-12T06:18:52;10.55;;;5.05;;
32130;SDS011;18639;50.716;7.086;2023-09-12T06:21:18;12.05;;;3.78;;
32130;SDS011;18639;50.716;7.086;2023-09-12T06:23:46;9.23;;;3.35;;
32130;SDS011;18639;50.716;7.086;2023-09-12T06:26:11;7.63;;;3.72;;
32130;SDS011;18639;50.716;7.086;2023-09-12T06:28:37;11.18;;;3.90;;
32130;SDS011;18639;50.716;7.086;2023-09-12T06:31:02;9.40;;;3.97;;
32130;SDS011;18639;50.716;7.086;2023-09-12T06:33:27;9.18;;;4.22;;
32130;SDS011;18639;50.716;7.086;2023-09-12T06:35:53;10.38;;;4.10;;
32130;SDS011;18639;50.716;7.086;2023-09-12T06:38:19;8.50;;;4.18;;
32130;SDS011;18639;50.716;7.086;2023-09-12T06:40:48;8.02;;;3.83;;
32130;SDS011;18639;50.716;7.086;2023-09-12T06:43:14;6.38;;;3.25;;
32130;SDS011;18639;50.716;7.086;2023-09-12T06:45:40;9.75;;;4.03;;
32130;SDS011;18639;50.716;7.086;2023-09-12T06:48:06;7.88;;;4.00;;
32130;SDS011;18639;50.716;7.086;2023-09-12T06:50:31;8.70;;;3.80;;
32130;SDS011;18639;50.716;7.086;2023-09-12T06:52:57;8.18;;;3.83;;
32130;SDS011;18639;50.716;7.086;2023-09-12T06:55:22;8.57;;;4.15;;
32130;SDS011;18639;50.716;7.086;2023-09-12T06:57:49;8.25;;;3.55;;
32130;SDS011;18639;50.716;7.086;2023-09-12T07:00:14;11.57;;;4.10;;
32130;SDS011;18639;50.716;7.086;2023-09-12T07:02:39;10.88;;;4.78;;
32130;SDS011;18639;50.716;7.086;2023-09-12T07:05:05;11.75;;;3.75;;
32130;SDS011;18639;50.716;7.086;2023-09-12T07:07:30;9.65;;;3.65;;
32130;SDS011;18639;50.716;7.086;2023-09-12T07:09:56;8.43;;;3.78;;
32130;SDS011;18639;50.716;7.086;2023-09-12T07:12:21;8.52;;;3.92;;
32130;SDS011;18639;50.716;7.086;2023-09-12T07:14:47;6.43;;;3.25;;
32130;SDS011;18639;50.716;7.086;2023-09-12T07:17:12;15.57;;;4.10;;
32130;SDS011;18639;50.716;7.086;2023-09-12T07:19:37;9.65;;;4.10;;
32130;SDS011;18639;50.716;7.086;2023-09-12T07:22:03;11.43;;;4.00;;
32130;SDS011;18639;50.716;7.086;2023-09-12T07:24:28;9.73;;;3.65;;
32130;SDS011;18639;50.716;7.086;2023-09-12T07:26:53;9.00;;;3.67;;
32130;SDS011;18639;50.716;7.086;2023-09-12T07:29:19;8.07;;;4.18;;
32130;SDS011;18639;50.716;7.086;2023-09-12T07:31:44;8.13;;;3.47;;
32130;SDS011;18639;50.716;7.086;2023-09-12T07:34:09;7.80;;;3.67;;
32130;SDS011;18639;50.716;7.086;2023-09-12T07:36:36;7.85;;;3.47;;
32130;SDS011;18639;50.716;7.086;2023-09-12T07:39:02;9.75;;;3.45;;
32130;SDS011;18639;50.716;7.086;2023-09-12T07:41:28;8.15;;;3.58;;
32130;SDS011;18639;50.716;7.086;2023-09-12T07:43:54;7.47;;;3.58;;
32130;SDS011;18639;50.716;7.086;2023-09-12T07:46:19;7.43;;;3.08;;
32130;SDS011;18639;50.716;7.086;2023-09-12T07:48:44;7.22;;;3.60;;
32130;SDS011;18639;50.716;7.086;2023-09-12T07:51:16;8.80;;;3.38;;
32130;SDS011;18639;50.716;7.086;2023-09-12T07:53:43;9.98;;;4.00;;
32130;SDS011;18639;50.716;7.086;2023-09-12T07:56:09;8.50;;;4.15;;
32130;SDS011;18639;50.716;7.086;2023-09-12T07:58:37;8.63;;;3.65;;
32130;SDS011;18639;50.716;7.086;2023-09-12T08:01:06;7.35;;;3.47;;
32130;SDS011;18639;50.716;7.086;2023-09-12T08:03:33;7.80;;;3.35;;
32130;SDS011;18639;50.716;7.086;2023-09-12T08:05:59;8.70;;;3.78;;
32130;SDS011;18639;50.716;7.086;2023-09-12T08:08:25;6.60;;;3.42;;
32130;SDS011;18639;50.716;7.086;2023-09-12T08:10:50;8.82;;;4.15;;
32130;SDS011;18639;50.716;7.086;2023-09-12T08:13:15;7.75;;;3.80;;
32130;SDS011;18639;50.716;7.086;2023-09-12T08:15:40;7.38;;;4.10;;
32130;SDS011;18639;50.716;7.086;2023-09-12T08:18:06;9.35;;;3.53;;
32130;SDS011;18639;50.716;7.086;2023-09-12T08:20:31;9.27;;;3.90;;
32130;SDS011;18639;50.716;7.086;2023-09-12T08:22:56;10.75;;;4.60;;
32130;SDS011;18639;50.716;7.086;2023-09-12T08:25:22;7.93;;;3.60;;
32130;SDS011;18639;50.716;7.086;2023-09-12T08:27:47;9.30;;;4.20;;
32130;SDS011;18639;50.716;7.086;2023-09-12T08:30:12;8.65;;;4.75;;
32130;SDS011;18639;50.716;7.086;2023-09-12T08:32:38;11.30;;;4.75;;
32130;SDS011;18639;50.716;7.086;2023-09-12T08:35:05;12.07;;;5.28;;
32130;SDS011;18639;50.716;7.086;2023-09-12T08:37:31;9.10;;;4.78;;
32130;SDS011;18639;50.716;7.086;2023-09-12T08:39:56;10.07;;;4.85;;
32130;SDS011;18639;50.716;7.086;2023-09-12T08:42:24;10.52;;;5.03;;
32130;SDS011;18639;50.716;7.086;2023-09-12T08:44:52;11.30;;;4.95;;
32130;SDS011;18639;50.716;7.086;2023-09-12T08:47:17;10.68;;;4.93;;
32130;SDS011;18639;50.716;7.086;2023-09-12T08:49:45;11.20;;;4.88;;
32130;SDS011;18639;50.716;7.086;2023-09-12T08:52:11;13.00;;;5.03;;
32130;SDS011;18639;50.716;7.086;2023-09-12T08:54:36;10.13;;;5.15;;
32130;SDS011;18639;50.716;7.086;2023-09-12T08:57:02;9.30;;;4.85;;
32130;SDS011;18639;50.716;7.086;2023-09-12T08:59:31;10.85;;;5.05;;
32130;SDS011;18639;50.716;7.086;2023-09-12T09:01:58;11.32;;;4.78;;
32130;SDS011;18639;50.716;7.086;2023-09-12T09:04:25;11.23;;;5.35;;
32130;SDS011;18639;50.716;7.086;2023-09-12T09:06:54;10.88;;;5.20;;
32130;SDS011;18639;50.716;7.086;2023-09-12T09:09:22;10.18;;;4.28;;
32130;SDS011;18639;50.716;7.086;2023-09-12T09:11:48;13.95;;;5.97;;
32130;SDS011;18639;50.716;7.086;2023-09-12T09:14:14;10.35;;;4.95;;
32130;SDS011;18639;50.716;7.086;2023-09-12T09:16:39;11.88;;;5.15;;
32130;SDS011;18639;50.716;7.086;2023-09-12T09:19:05;9.80;;;4.60;;
32130;SDS011;18639;50.716;7.086;2023-09-12T09:21:34;10.13;;;5.07;;
32130;SDS011;18639;50.716;7.086;2023-09-12T09:24:04;11.57;;;5.15;;
32130;SDS011;18639;50.716;7.086;2023-09-12T09:26:46;9.40;;;4.88;;
32130;SDS011;18639;50.716;7.086;2023-09-12T09:29:13;9.95;;;4.95;;
32130;SDS011;18639;50.716;7.086;2023-09-12T09:31:46;13.38;;;5.57;;
32130;SDS011;18639;50.716;7.086;2023-09-12T09:34:13;10.07;;;4.47;;
32130;SDS011;18639;50.716;7.086;2023-09-12T09:36:43;12.10;;;5.07;;
32130;SDS011;18639;50.716;7.086;2023-09-12T09:39:09;10.63;;;4.43;;
32130;SDS011;18639;50.716;7.086;2023-09-12T09:41:36;8.30;;;4.60;;
32130;SDS011;18639;50.716;7.086;2023-09-12T09:44:03;7.60;;;3.72;;
32130;SDS011;18639;50.716;7.086;2023-09-12T09:46:31;6.55;;;3.70;;
32130;SDS011;18639;50.716;7.086;2023-09-12T09:48:57;7.85;;;4.05;;
32130;SDS011;18639;50.716;7.086;2023-09-12T09:51:23;8.75;;;4.10;;
32130;SDS011;18639;50.716;7.086;2023-09-12T09:53:51;8.20;;;4.20;;
32130;SDS011;18639;50.716;7.086;2023-09-12T09:56:16;7.32;;;4.18;;
32130;SDS011;18639;50.716;7.086;2023-09-12T09:58:45;7.72;;;4.25;;
32130;SDS011;18639;50.716;7.086;2023-09-12T10:01:20;8.75;;;4.07;;
32130;SDS011;18639;50.716;7.086;2023-09-12T10:03:47;8.25;;;4.30;;
32130;SDS011;18639;50.716;7.086;2023-09-12T10:06:14;7.40;;;4.07;;
32130;SDS011;18639;50.716;7.086;2023-09-12T10:08:44;6.65;;;3.92;;
32130;SDS011;18639;50.716;7.086;2023-09-12T10:11:12;9.63;;;4.13;;
32130;SDS011;18639;50.716;7.086;2023-09-12T10:13:39;11.65;;;4.07;;
32130;SDS011;18639;50.716;7.086;2023-09-12T10:16:20;11.43;;;5.20;;
32130;SDS011;18639;50.716;7.086;2023-09-12T10:18:59;8.95;;;5.18;;
32130;SDS011;18639;50.716;7.086;2023-09-12T10:21:46;11.00;;;4.88;;
32130;SDS011;18639;50.716;7.086;2023-09-12T10:24:31;12.82;;;5.07;;
32130;SDS011;18639;50.716;7.086;2023-09-12T10:26:59;10.73;;;5.78;;
32130;SDS011;18639;50.716;7.086;2023-09-12T10:29:26;11.70;;;5.85;;
32130;SDS011;18639;50.716;7.086;2023-09-12T10:31:52;9.65;;;4.90;;
32130;SDS011;18639;50.716;7.086;2023-09-12T10:34:18;10.68;;;6.30;;
32130;SDS011;18639;50.716;7.086;2023-09-12T10:36:43;12.73;;;5.80;;
32130;SDS011;18639;50.716;7.086;2023-09-12T10:39:10;12.70;;;7.47;;
32130;SDS011;18639;50.716;7.086;2023-09-12T10:41:38;12.98;;;6.10;;
32130;SDS011;18639;50.716;7.086;2023-09-12T10:44:25;11.32;;;5.97;;
32130;SDS011;18639;50.716;7.086;2023-09-12T10:46:51;12.18;;;5.97;;
32130;SDS011;18639;50.716;7.086;2023-09-12T10:49:18;10.63;;;5.82;;
32130;SDS011;18639;50.716;7.086;2023-09-12T10:51:45;9.65;;;5.25;;
32130;SDS011;18639;50.716;7.086;2023-09-12T10:54:24;13.55;;;6.10;;
32130;SDS011;18639;50.716;7.086;2023-09-12T10:57:04;14.40;;;6.53;;
32130;SDS011;18639;50.716;7.086;2023-09-12T10:59:33;11.48;;;5.63;;
32130;SDS011;18639;50.716;7.086;2023-09-12T11:04:54;10.18;;;5.35;;
32130;SDS011;18639;50.716;7.086;2023-09-12T11:12:39;10.93;;;5.00;;
32130;SDS011;18639;50.716;7.086;2023-09-12T11:15:05;11.00;;;5.97;;
32130;SDS011;18639;50.716;7.086;2023-09-12T11:17:37;9.35;;;5.22;;
32130;SDS011;18639;50.716;7.086;2023-09-12T11:20:03;10.35;;;5.13;;
32130;SDS011;18639;50.716;7.086;2023-09-12T11:22:42;11.63;;;4.78;;
32130;SDS011;18639;50.716;7.086;2023-09-12T11:25:22;10.27;;;4.50;;
32130;SDS011;18639;50.716;7.086;2023-09-12T11:30:15;9.13;;;4.73;;
32130;SDS011;18639;50.716;7.086;2023-09-12T11:32:42;9.00;;;4.55;;
32130;SDS011;18639;50.716;7.086;2023-09-12T11:35:09;11.05;;;5.35;;
32130;SDS011;18639;50.716;7.086;2023-09-12T11:37:35;11.68;;;5.30;;
32130;SDS011;18639;50.716;7.086;2023-09-12T11:42:40;8.55;;;4.60;;
32130;SDS011;18639;50.716;7.086;2023-09-12T11:45:09;8.55;;;4.72;;
32130;SDS011;18639;50.716;7.086;2023-09-12T11:47:41;7.65;;;4.53;;
32130;SDS011;18639;50.716;7.086;2023-09-12T11:50:08;12.48;;;4.80;;
32130;SDS011;18639;50.716;7.086;2023-09-12T11:53:03;10.40;;;4.80;;
32130;SDS011;18639;50.716;7.086;2023-09-12T11:55:30;8.73;;;4.53;;
32130;SDS011;18639;50.716;7.086;2023-09-12T11:57:57;11.95;;;4.97;;
32130;SDS011;18639;50.716;7.086;2023-09-12T12:00:22;7.07;;;4.28;;
32130;SDS011;18639;50.716;7.086;2023-09-12T12:02:47;9.43;;;4.50;;
32130;SDS011;18639;50.716;7.086;2023-09-12T12:05:13;8.90;;;5.05;;
32130;SDS011;18639;50.716;7.086;2023-09-12T12:07:38;7.43;;;4.55;;
32130;SDS011;18639;50.716;7.086;2023-09-12T12:10:04;7.10;;;3.95;;
32130;SDS011;18639;50.716;7.086;2023-09-12T12:12:30;9.38;;;4.78;;
32130;SDS011;18639;50.716;7.086;2023-09-12T12:14:55;8.48;;;4.53;;
32130;SDS011;18639;50.716;7.086;2023-09-12T12:17:20;19.50;;;5.22;;
32130;SDS011;18639;50.716;7.086;2023-09-12T12:19:46;8.02;;;4.30;;
32130;SDS011;18639;50.716;7.086;2023-09-12T12:22:11;8.23;;;4.53;;
32130;SDS011;18639;50.716;7.086;2023-09-12T12:24:37;7.85;;;4.20;;
32130;SDS011;18639;50.716;7.086;2023-09-12T12:27:04;7.45;;;4.05;;
32130;SDS011;18639;50.716;7.086;2023-09-12T12:29:30;6.72;;;3.80;;
32130;SDS011;18639;50.716;7.086;2023-09-12T12:32:01;10.05;;;4.82;;
32130;SDS011;18639;50.716;7.086;2023-09-12T12:34:27;8.45;;;4.35;;
32130;SDS011;18639;50.716;7.086;2023-09-12T12:36:53;6.82;;;3.78;;
32130;SDS011;18639;50.716;7.086;2023-09-12T12:39:20;5.35;;;3.40;;
32130;SDS011;18639;50.716;7.086;2023-09-12T12:41:46;6.57;;;3.38;;
32130;SDS011;18639;50.716;7.086;2023-09-12T12:44:12;6.55;;;3.22;;
32130;SDS011;18639;50.716;7.086;2023-09-12T12:46:51;8.18;;;3.65;;
32130;SDS011;18639;50.716;7.086;2023-09-12T12:49:21;11.75;;;3.50;;
32130;SDS011;18639;50.716;7.086;2023-09-12T12:51:48;5.20;;;3.17;;
32130;SDS011;18639;50.716;7.086;2023-09-12T12:54:13;7.82;;;3.78;;
32130;SDS011;18639;50.716;7.086;2023-09-12T12:56:39;8.70;;;3.70;;
32130;SDS011;18639;50.716;7.086;2023-09-12T12:59:06;8.15;;;3.53;;
32130;SDS011;18639;50.716;7.086;2023-09-12T13:01:34;5.10;;;3.08;;
32130;SDS011;18639;50.716;7.086;2023-09-12T13:04:00;8.05;;;3.95;;
32130;SDS011;18639;50.716;7.086;2023-09-12T13:06:28;7.00;;;3.22;;
32130;SDS011;18639;50.716;7.086;2023-09-12T13:08:55;5.38;;;3.50;;
32130;SDS011;18639;50.716;7.086;2023-09-12T13:11:22;6.57;;;3.25;;
32130;SDS011;18639;50.716;7.086;2023-09-12T13:13:47;5.53;;;3.35;;
32130;SDS011;18639;50.716;7.086;2023-09-12T13:16:14;8.77;;;2.97;;
32130;SDS011;18639;50.716;7.086;2023-09-12T13:18:40;7.90;;;3.33;;
32130;SDS011;18639;50.716;7.086;2023-09-12T13:21:06;5.35;;;3.20;;
32130;SDS011;18639;50.716;7.086;2023-09-12T13:23:35;5.65;;;3.00;;
32130;SDS011;18639;50.716;7.086;2023-09-12T13:26:02;5.25;;;3.00;;
32130;SDS011;18639;50.716;7.086;2023-09-12T13:28:28;5.90;;;3.00;;
32130;SDS011;18639;50.716;7.086;2023-09-12T13:30:53;4.68;;;2.65;;
32130;SDS011;18639;50.716;7.086;2023-09-12T13:33:19;4.72;;;2.75;;
32130;SDS011;18639;50.716;7.086;2023-09-12T13:35:46;7.20;;;3.08;;
32130;SDS011;18639;50.716;7.086;2023-09-12T13:38:13;6.43;;;3.40;;
32130;SDS011;18639;50.716;7.086;2023-09-12T13:40:39;5.03;;;2.80;;
32130;SDS011;18639;50.716;7.086;2023-09-12T13:43:05;5.72;;;2.90;;
32130;SDS011;18639;50.716;7.086;2023-09-12T13:45:31;5.00;;;3.00;;
32130;SDS011;18639;50.716;7.086;2023-09-12T13:47:57;7.00;;;3.50;;
32130;SDS011;18639;50.716;7.086;2023-09-12T13:50:23;6.45;;;3.13;;
32130;SDS011;18639;50.716;7.086;2023-09-12T13:52:49;6.43;;;3.53;;
32130;SDS011;18639;50.716;7.086;2023-09-12T13:55:14;5.72;;;3.00;;
32130;SDS011;18639;50.716;7.086;2023-09-12T13:57:41;5.18;;;3.13;;
32130;SDS011;18639;50.716;7.086;2023-09-12T14:00:06;6.13;;;2.88;;
32130;SDS011;18639;50.716;7.086;2023-09-12T14:02:32;8.57;;;2.88;;
32130;SDS011;18639;50.716;7.086;2023-09-12T14:04:58;5.15;;;3.03;;
32130;SDS011;18639;50.716;7.086;2023-09-12T14:07:23;5.07;;;2.75;;
32130;SDS011;18639;50.716;7.086;2023-09-12T14:09:48;5.15;;;3.20;;
32130;SDS011;18639;50.716;7.086;2023-09-12T14:12:14;4.82;;;2.75;;
32130;SDS011;18639;50.716;7.086;2023-09-12T14:14:40;4.28;;;2.60;;
32130;SDS011;18639;50.716;7.086;2023-09-12T14:17:05;5.72;;;2.72;;
32130;SDS011;18639;50.716;7.086;2023-09-12T14:19:31;5.25;;;2.88;;
32130;SDS011;18639;50.716;7.086;2023-09-12T14:21:56;4.80;;;3.00;;
32130;SDS011;18639;50.716;7.086;2023-09-12T14:24:22;5.10;;;2.65;;
32130;SDS011;18639;50.716;7.086;2023-09-12T14:26:47;5.03;;;2.70;;
32130;SDS011;18639;50.716;7.086;2023-09-12T14:29:13;5.32;;;2.88;;
32130;SDS011;18639;50.716;7.086;2023-09-12T14:31:38;4.15;;;2.42;;
32130;SDS011;18639;50.716;7.086;2023-09-12T14:34:04;4.38;;;2.60;;
32130;SDS011;18639;50.716;7.086;2023-09-12T14:36:31;6.05;;;2.72;;
32130;SDS011;18639;50.716;7.086;2023-09-12T14:38:56;6.57;;;2.75;;
32130;SDS011;18639;50.716;7.086;2023-09-12T14:41:21;4.78;;;2.65;;
32130;SDS011;18639;50.716;7.086;2023-09-12T14:43:47;4.43;;;2.60;;
32130;SDS011;18639;50.716;7.086;2023-09-12T14:46:12;6.55;;;3.17;;
32130;SDS011;18639;50.716;7.086;2023-09-12T14:48:37;4.53;;;2.70;;
32130;SDS011;18639;50.716;7.086;2023-09-12T14:51:03;4.40;;;2.50;;
32130;SDS011;18639;50.716;7.086;2023-09-12T14:53:28;5.20;;;2.65;;
32130;SDS011;18639;50.716;7.086;2023-09-12T14:55:54;6.05;;;3.08;;
32130;SDS011;18639;50.716;7.086;2023-09-12T14:58:19;5.75;;;3.10;;
32130;SDS011;18639;50.716;7.086;2023-09-12T15:00:44;5.03;;;2.80;;
32130;SDS011;18639;50.716;7.086;2023-09-12T15:03:10;4.28;;;3.05;;